createdAt,value
2022-11-28T00:05:46.918Z,6.82
2022-11-28T00:09:41.404Z,8.20
2022-11-28T00:12:16.444Z,8.40
2022-11-28T00:18:59.904Z,6.43
2022-11-28T00:25:59.326Z,7.07
2022-11-28T00:32:45.390Z,6.47
2022-11-28T00:39:39.214Z,7.37
2022-11-28T00:46:28.498Z,6.93
2022-11-28T00:53:15.719Z,6.65
2022-11-28T01:00:02.546Z,6.15
2022-11-28T01:06:52.454Z,7.07
2022-11-28T01:09:43.861Z,9.53
2022-11-28T01:12:18.941Z,8.85
2022-11-28T01:19:11.196Z,7.97
2022-11-28T01:26:02.021Z,8.80
2022-11-28T01:32:49.735Z,7.83
2022-11-28T01:39:41.722Z,6.53
2022-11-28T01:46:36.320Z,7.88
2022-11-28T01:53:23.041Z,8.48
2022-11-28T02:00:15.591Z,6.20
2022-11-28T02:03:42.338Z,5.27
2022-11-28T02:10:34.236Z,4.43
2022-11-28T02:14:14.352Z,8.00
2022-11-28T02:21:28.959Z,6.38
2022-11-28T02:29:14.210Z,6.32
2022-11-28T02:32:44.695Z,5.32
2022-11-28T02:39:37.437Z,6.22
2022-11-28T02:46:31.044Z,8.38
2022-11-28T02:53:26.858Z,8.38
2022-11-28T03:04:40.600Z,6.30
2022-11-28T03:12:33.470Z,4.40
2022-11-28T03:19:24.159Z,5.57
2022-11-28T03:26:18.701Z,5.75
2022-11-28T03:33:17.262Z,5.82
2022-11-28T03:40:09.479Z,5.57
2022-11-28T03:47:02.294Z,6.30
2022-11-28T03:53:52.745Z,6.05
2022-11-28T04:05:02.866Z,5.30
2022-11-28T04:16:10.774Z,4.28
2022-11-28T04:23:16.650Z,5.05
2022-11-28T04:30:09.770Z,6.75
2022-11-28T04:37:06.823Z,6.95
2022-11-28T04:44:06.685Z,6.47
2022-11-28T04:51:03.030Z,6.83
2022-11-28T04:57:57.618Z,5.68
2022-11-28T05:05:02.920Z,6.63
2022-11-28T05:16:03.560Z,5.55
2022-11-28T05:23:07.542Z,5.85
2022-11-28T05:29:55.136Z,5.60
2022-11-28T05:36:41.439Z,11.32
2022-11-28T05:47:36.382Z,12.10
2022-11-28T05:54:17.103Z,11.37
2022-11-28T06:05:41.444Z,10.60
2022-11-28T06:12:28.355Z,11.47
2022-11-28T06:19:08.739Z,11.38
2022-11-28T06:25:57.135Z,12.60
2022-11-28T06:32:44.705Z,10.23
2022-11-28T06:39:29.359Z,12.27
2022-11-28T06:46:21.186Z,7.53
2022-11-28T06:53:08.655Z,6.15
2022-11-28T07:00:01.532Z,7.83
2022-11-28T07:03:39.118Z,9.18
2022-11-28T07:14:43.358Z,7.50
2022-11-28T07:21:52.056Z,7.37
2022-11-28T07:32:52.261Z,6.75
2022-11-28T07:43:54.612Z,7.07
2022-11-28T07:50:44.349Z,9.70
2022-11-28T08:04:47.749Z,9.75
2022-11-28T08:15:58.367Z,10.23
2022-11-28T08:22:45.651Z,10.48
2022-11-28T08:29:26.383Z,6.65
2022-11-28T08:36:18.077Z,8.02
2022-11-28T08:43:05.027Z,5.88
2022-11-28T08:46:00.735Z,9.13
2022-11-28T08:52:50.056Z,5.20
2022-11-28T08:59:37.282Z,4.30
2022-11-28T09:06:25.561Z,6.38
2022-11-28T09:09:14.607Z,6.10
2022-11-28T09:16:47.660Z,7.10
2022-11-28T09:23:39.892Z,5.47
2022-11-28T09:30:29.394Z,6.97
2022-11-28T09:37:18.147Z,6.05
2022-11-28T09:44:04.915Z,6.25
2022-11-28T09:54:53.064Z,5.90
2022-11-28T10:06:05.970Z,6.07
2022-11-28T10:09:44.462Z,9.38
2022-11-28T10:17:46.761Z,7.20
2022-11-28T10:24:42.401Z,6.60
2022-11-28T10:28:18.813Z,8.37
2022-11-28T10:31:00.883Z,7.97
2022-11-28T10:33:44.485Z,7.20
2022-11-28T10:36:26.427Z,6.22
2022-11-28T10:48:04.040Z,5.93
2022-11-28T10:55:43.482Z,6.25
2022-11-28T10:59:16.256Z,4.53
2022-11-28T11:06:12.656Z,6.85
2022-11-28T11:09:43.257Z,7.32
2022-11-28T11:12:32.099Z,8.80
2022-11-28T11:19:32.360Z,7.30
2022-11-28T11:31:19.810Z,9.70
2022-11-28T11:38:19.539Z,7.15
2022-11-28T11:53:31.108Z,9.93
2022-11-28T12:09:44.148Z,6.93
2022-11-28T12:26:02.505Z,7.15
2022-11-28T12:42:02.132Z,8.63
2022-11-28T12:49:21.807Z,8.45
2022-11-28T12:56:24.988Z,9.80
2022-11-28T13:03:28.700Z,9.02
2022-11-28T13:10:22.501Z,8.85
2022-11-28T13:14:11.808Z,9.88
2022-11-28T13:21:16.269Z,12.93
2022-11-28T13:24:08.169Z,11.90
2022-11-28T13:26:59.133Z,12.48
2022-11-28T13:38:53.101Z,10.60
2022-11-28T13:45:49.103Z,7.00
2022-11-28T13:49:40.959Z,10.13
2022-11-28T13:56:29.598Z,9.68
2022-11-28T14:12:42.839Z,9.57
2022-11-28T14:15:30.757Z,11.88
2022-11-28T14:23:35.761Z,10.15
2022-11-28T14:34:45.500Z,8.65
2022-11-28T14:41:33.416Z,9.90
2022-11-28T14:52:40.331Z,7.57
2022-11-28T14:55:23.374Z,11.15
2022-11-28T14:58:36.436Z,9.75
2022-11-28T15:06:41.030Z,8.93
2022-11-28T15:09:50.162Z,7.35
2022-11-28T15:12:34.922Z,9.82
2022-11-28T15:15:31.072Z,8.90
2022-11-28T15:18:37.032Z,9.32
2022-11-28T15:22:25.054Z,11.63
2022-11-28T15:29:23.317Z,10.00
2022-11-28T15:41:01.407Z,8.48
2022-11-28T15:44:19.358Z,9.80
2022-11-28T15:51:12.483Z,16.52
2022-11-28T15:54:27.972Z,11.48
2022-11-28T16:01:26.543Z,11.70
2022-11-28T16:04:43.524Z,10.95
2022-11-28T16:08:30.733Z,12.70
2022-11-28T16:15:29.630Z,10.52
2022-11-28T16:22:51.355Z,10.18
2022-11-28T16:29:48.412Z,13.05
2022-11-28T16:36:38.315Z,12.27
2022-11-28T16:43:36.795Z,10.65
2022-11-28T16:50:27.657Z,12.75
2022-11-28T16:57:22.083Z,11.43
2022-11-28T17:04:06.795Z,13.93
2022-11-28T17:10:58.784Z,13.70
2022-11-28T17:14:17.932Z,14.52
2022-11-28T17:21:13.731Z,15.50
2022-11-28T17:28:03.483Z,13.85
2022-11-28T17:35:04.037Z,13.57
2022-11-28T17:41:56.239Z,14.30
2022-11-28T17:48:41.384Z,12.10
2022-11-28T17:55:29.658Z,12.55
2022-11-28T18:02:36.970Z,19.55
2022-11-28T18:06:47.732Z,13.88
2022-11-28T18:09:55.078Z,11.75
2022-11-28T18:20:57.048Z,12.93
2022-11-28T18:27:43.041Z,17.23
2022-11-28T18:34:23.485Z,13.13
2022-11-28T18:41:12.057Z,12.93
2022-11-28T18:48:05.945Z,13.00
2022-11-28T18:54:57.164Z,11.05
2022-11-28T19:02:01.476Z,13.20
2022-11-28T19:08:48.997Z,12.45
2022-11-28T19:15:56.097Z,15.00
2022-11-28T19:22:55.646Z,13.52
2022-11-28T19:29:51.697Z,20.08
2022-11-28T19:36:49.273Z,18.58
2022-11-28T19:43:33.156Z,14.63
2022-11-28T19:50:35.010Z,13.18
2022-11-28T20:02:48.585Z,14.77
2022-11-28T20:09:39.602Z,12.07
2022-11-28T20:16:27.766Z,15.43
2022-11-28T20:23:18.599Z,19.35
2022-11-28T20:30:08.001Z,17.83
2022-11-28T20:36:56.291Z,18.35
2022-11-28T20:43:40.986Z,18.33
2022-11-28T20:54:41.271Z,18.27
2022-11-28T21:01:40.020Z,16.25
2022-11-28T21:08:31.882Z,21.85
2022-11-28T21:19:57.117Z,15.13
2022-11-28T21:27:07.359Z,14.90
2022-11-28T21:38:04.383Z,16.13
2022-11-28T21:44:51.445Z,13.90
2022-11-28T21:51:38.260Z,14.70
2022-11-28T21:58:26.316Z,14.20
2022-11-28T22:05:16.322Z,13.27
2022-11-28T22:16:48.046Z,13.77
2022-11-28T22:20:50.213Z,13.43
2022-11-28T22:27:43.871Z,11.80
2022-11-28T22:38:40.580Z,14.32
2022-11-28T22:45:45.620Z,13.57
2022-11-28T22:52:43.013Z,14.65
2022-11-28T22:59:43.683Z,12.38
2022-11-28T23:06:37.241Z,11.85
2022-11-28T23:09:44.511Z,11.63
2022-11-28T23:12:19.584Z,11.25
2022-11-28T23:19:19.566Z,9.57
2022-11-28T23:26:15.226Z,12.18
2022-11-28T23:33:04.843Z,11.07
2022-11-28T23:39:58.571Z,8.23
2022-11-28T23:46:52.226Z,10.57
2022-11-28T23:53:40.003Z,8.30
